Time;durP1;ratioP1;P1;durP2;ratioP2;P2;SDS_P1;SDS_P2;PMS_P1;PMS_P2;Temp;Humidity;BMP_temperature;BMP_pressure;BME280_temperature;BME280_humidity;BME280_pressure;Samples;Min_cycle;Max_cycle;Signal;HPM_P1;HPM_P2
2023/05/01 00:01:53;;;;;;;4.57;2.80;;;14.30;99.90;;;;;;4153319;28;20272;-94
2023/05/01 00:03:54;;;;;;;6.03;2.90;;;14.20;99.90;;;;;;4153029;28;20196;-92
2023/05/01 00:06:03;;;;;;;5.05;2.90;;;14.10;99.90;;;;;;4169746;28;20249;-92
2023/05/01 00:08:04;;;;;;;8.13;3.33;;;14.10;99.90;;;;;;4153239;28;20191;-92
2023/05/01 00:10:06;;;;;;;3.65;2.58;;;14.10;99.90;;;;;;4169532;28;20192;-93
2023/05/01 00:12:07;;;;;;;5.15;3.08;;;14.00;99.90;;;;;;4153363;28;20184;-93
2023/05/01 00:14:07;;;;;;;4.88;2.95;;;14.00;99.90;;;;;;4153157;28;20276;-95
2023/05/01 00:16:09;;;;;;;5.85;3.50;;;13.90;99.90;;;;;;4153297;28;20181;-94
2023/05/01 00:18:10;;;;;;;9.57;3.15;;;13.80;99.90;;;;;;4152896;28;20220;-92
2023/05/01 00:20:11;;;;;;;4.20;3.20;;;13.80;99.90;;;;;;4153260;28;20533;-93
2023/05/01 00:22:12;;;;;;;4.20;3.13;;;13.80;99.90;;;;;;4153322;28;20181;-93
2023/05/01 00:24:15;;;;;;;5.28;3.08;;;13.80;99.90;;;;;;4169309;28;20710;-93
2023/05/01 00:26:16;;;;;;;5.00;3.10;;;14.00;99.90;;;;;;4153218;28;20247;-92
2023/05/01 00:28:20;;;;;;;5.22;2.90;;;14.10;99.90;;;;;;4169541;28;20165;-94
2023/05/01 00:30:21;;;;;;;7.53;3.22;;;14.10;99.90;;;;;;4151170;28;20274;-94
2023/05/01 00:32:22;;;;;;;5.40;3.10;;;14.30;99.90;;;;;;4166389;28;20165;-94
2023/05/01 00:34:23;;;;;;;5.22;3.10;;;14.50;99.90;;;;;;4150186;28;20193;-95
2023/05/01 00:36:24;;;;;;;6.68;3.25;;;14.60;99.90;;;;;;4166652;28;20163;-95
2023/05/01 00:38:25;;;;;;;8.88;3.08;;;14.60;99.90;;;;;;4150634;28;20260;-95
2023/05/01 00:40:26;;;;;;;4.68;2.92;;;14.60;99.90;;;;;;4150438;28;20258;-95
2023/05/01 00:42:32;;;;;;;6.45;3.03;;;14.70;99.90;;;;;;4150052;28;20207;-95
2023/05/01 00:44:33;;;;;;;4.93;3.25;;;14.80;99.90;;;;;;4150305;28;20185;-93
2023/05/01 00:46:34;;;;;;;6.78;3.53;;;14.70;99.90;;;;;;4150570;28;20180;-95
2023/05/01 00:48:35;;;;;;;6.18;2.97;;;14.60;99.90;;;;;;4150253;28;20169;-94
2023/05/01 00:50:37;;;;;;;5.30;3.03;;;14.40;99.90;;;;;;4150095;28;20665;-93
2023/05/01 00:52:38;;;;;;;6.88;3.03;;;14.40;99.90;;;;;;4166529;28;20177;-93
2023/05/01 00:54:39;;;;;;;4.15;2.90;;;14.50;99.90;;;;;;4166441;28;20687;-92
2023/05/01 00:56:40;;;;;;;6.40;3.13;;;14.50;99.90;;;;;;4150180;28;20240;-92
2023/05/01 00:58:41;;;;;;;4.47;3.08;;;14.50;99.90;;;;;;4150180;28;20609;-95
2023/05/01 01:00:42;;;;;;;5.10;3.03;;;14.60;99.90;;;;;;4166498;28;20168;-95
2023/05/01 01:02:44;;;;;;;6.05;2.80;;;14.50;99.90;;;;;;4149840;28;20169;-95
2023/05/01 01:04:47;;;;;;;7.00;2.92;;;14.50;99.90;;;;;;4166176;28;20203;-94
2023/05/01 01:07:07;;;;;;;5.00;3.00;;;14.60;99.90;;;;;;4149955;28;20210;-93
2023/05/01 01:09:45;;;;;;;6.72;2.75;;;14.70;99.90;;;;;;4149867;28;20604;-93
2023/05/01 01:12:05;;;;;;;6.05;3.20;;;14.60;99.90;;;;;;4166119;28;20172;-94
2023/05/01 01:14:16;;;;;;;5.13;2.90;;;14.60;99.90;;;;;;4149872;28;20197;-95
2023/05/01 01:16:42;;;;;;;7.13;3.20;;;14.50;99.90;;;;;;4166000;28;20171;-96
2023/05/01 01:18:52;;;;;;;7.97;3.25;;;14.60;99.90;;;;;;4149637;28;20193;-93
2023/05/01 01:21:05;;;;;;;4.72;3.03;;;14.70;99.90;;;;;;4149805;28;20633;-94
2023/05/01 01:23:38;;;;;;;6.13;3.65;;;14.70;99.90;;;;;;4165920;28;20176;-92
2023/05/01 01:26:03;;;;;;;7.10;3.80;;;14.70;99.90;;;;;;4166070;28;20517;-93
2023/05/01 01:28:35;;;;;;;5.38;3.55;;;14.70;99.90;;;;;;4149282;28;20227;-94
2023/05/01 01:31:14;;;;;;;6.82;4.35;;;14.40;99.90;;;;;;4166153;28;20206;-93
2023/05/01 01:33:43;;;;;;;4.88;3.92;;;14.50;99.90;;;;;;4138942;28;20692;-95
2023/05/01 01:35:55;;;;;;;8.07;4.60;;;14.50;99.90;;;;;;4149600;28;20279;-95
2023/05/01 01:38:10;;;;;;;7.38;4.20;;;14.40;99.90;;;;;;4165843;28;20215;-93
2023/05/01 01:40:15;;;;;;;7.18;3.92;;;14.20;99.90;;;;;;4149426;28;20256;-93
2023/05/01 01:42:25;;;;;;;7.55;4.10;;;14.10;99.90;;;;;;4148023;28;20177;-93
2023/05/01 01:44:54;;;;;;;8.50;4.20;;;14.10;99.90;;;;;;4149129;28;20197;-94
2023/05/01 01:46:55;;;;;;;7.55;4.22;;;14.30;99.90;;;;;;4143262;28;20185;-96
2023/05/01 01:48:57;;;;;;;8.18;4.38;;;14.30;99.90;;;;;;4165632;28;20176;-94
2023/05/01 01:51:01;;;;;;;6.32;4.47;;;14.30;99.90;;;;;;4149291;28;20557;-95
2023/05/01 01:53:04;;;;;;;6.35;4.72;;;14.40;99.90;;;;;;4165360;28;20164;-93
2023/05/01 01:55:10;;;;;;;8.82;4.28;;;14.30;99.90;;;;;;4165555;28;20693;-93
2023/05/01 01:57:13;;;;;;;5.68;4.05;;;14.10;99.90;;;;;;4149145;28;20612;-94
2023/05/01 01:59:15;;;;;;;7.32;4.43;;;14.20;99.90;;;;;;4165625;28;20168;-93
2023/05/01 02:01:18;;;;;;;5.80;4.47;;;14.30;99.90;;;;;;4149348;28;20180;-95
2023/05/01 02:03:20;;;;;;;7.63;5.47;;;14.40;99.90;;;;;;4148961;28;20181;-93
2023/05/01 02:05:23;;;;;;;6.47;4.57;;;14.50;99.90;;;;;;4148929;28;20206;-93
2023/05/01 02:07:26;;;;;;;6.28;4.60;;;14.40;99.90;;;;;;4165456;28;20238;-95
2023/05/01 02:09:29;;;;;;;6.78;4.55;;;14.50;99.90;;;;;;4165258;28;20263;-92
2023/05/01 02:11:31;;;;;;;8.77;4.60;;;14.50;99.90;;;;;;4149276;28;20200;-94
2023/05/01 02:13:32;;;;;;;6.50;4.85;;;14.50;99.90;;;;;;4149027;28;20188;-92
2023/05/01 02:15:34;;;;;;;9.02;4.50;;;14.50;99.90;;;;;;4148777;28;20165;-96
2023/05/01 02:17:37;;;;;;;7.22;4.43;;;14.50;99.90;;;;;;4148692;28;20212;-93
2023/05/01 02:19:41;;;;;;;7.18;4.90;;;14.50;99.90;;;;;;4148744;28;20180;-96
2023/05/01 02:21:44;;;;;;;5.75;4.53;;;14.40;99.90;;;;;;4148511;28;20304;-93
2023/05/01 02:23:45;;;;;;;5.47;4.40;;;14.30;99.90;;;;;;4148730;28;20192;-95
2023/05/01 02:25:48;;;;;;;7.47;4.60;;;14.30;99.90;;;;;;4165268;28;20184;-94
2023/05/01 02:27:55;;;;;;;5.55;4.50;;;14.40;99.90;;;;;;4148779;28;20165;-95
2023/05/01 02:29:56;;;;;;;7.45;4.70;;;14.50;99.90;;;;;;4148638;28;20184;-96
2023/05/01 02:31:57;;;;;;;7.20;5.15;;;14.50;99.90;;;;;;4165128;28;20184;-95
2023/05/01 02:33:58;;;;;;;7.78;5.18;;;14.40;99.90;;;;;;4164700;28;20648;-92
2023/05/01 02:35:58;;;;;;;5.57;4.68;;;14.10;99.90;;;;;;4148717;28;20585;-93
2023/05/01 02:37:59;;;;;;;7.32;5.32;;;14.10;99.90;;;;;;4148390;28;20219;-95
2023/05/01 02:40:02;;;;;;;8.10;5.78;;;14.10;99.90;;;;;;4148434;28;20616;-92
2023/05/01 02:42:05;;;;;;;7.47;5.45;;;14.20;99.90;;;;;;4148619;28;20676;-93
2023/05/01 02:44:08;;;;;;;7.57;5.68;;;14.20;99.90;;;;;;4148352;28;20201;-93
2023/05/01 02:46:11;;;;;;;11.40;6.03;;;14.10;99.90;;;;;;4148775;28;20187;-93
2023/05/01 02:48:16;;;;;;;6.65;5.32;;;14.10;99.90;;;;;;4164973;28;20204;-95
2023/05/01 02:50:19;;;;;;;5.57;4.88;;;14.20;99.90;;;;;;4165055;28;20179;-93
2023/05/01 02:52:21;;;;;;;12.30;5.40;;;14.30;99.90;;;;;;4164945;28;20176;-94
2023/05/01 02:54:26;;;;;;;13.10;5.30;;;14.40;99.90;;;;;;4148253;28;20735;-94
2023/05/01 02:56:28;;;;;;;7.10;5.47;;;14.40;99.90;;;;;;4164747;28;20165;-95
2023/05/01 02:58:31;;;;;;;8.63;5.25;;;14.40;99.90;;;;;;4148394;28;20177;-93
2023/05/01 03:00:32;;;;;;;6.00;5.28;;;14.30;99.90;;;;;;4148542;28;20173;-94
2023/05/01 03:02:33;;;;;;;9.52;5.72;;;14.40;99.90;;;;;;4164620;28;20545;-94
2023/05/01 03:04:34;;;;;;;10.50;5.72;;;14.30;99.90;;;;;;4164608;28;20192;-92
2023/05/01 03:06:35;;;;;;;10.15;6.05;;;14.20;99.90;;;;;;4148367;28;20180;-92
2023/05/01 03:08:36;;;;;;;8.02;5.60;;;14.20;99.90;;;;;;4164140;28;20711;-92
2023/05/01 03:10:41;;;;;;;7.88;5.78;;;14.10;99.90;;;;;;4164767;28;20255;-96
2023/05/01 03:12:43;;;;;;;7.53;5.10;;;14.10;99.90;;;;;;4164360;28;20199;-95
2023/05/01 03:14:44;;;;;;;8.48;5.35;;;13.80;99.90;;;;;;4148168;28;20185;-93
2023/05/01 03:16:44;;;;;;;6.25;5.32;;;13.80;99.90;;;;;;4148181;28;20196;-95
2023/05/01 03:18:45;;;;;;;6.75;4.57;;;13.80;99.90;;;;;;4148044;28;20180;-95
2023/05/01 03:20:53;;;;;;;7.47;4.65;;;13.80;99.90;;;;;;4164168;28;20164;-92
2023/05/01 03:22:54;;;;;;;9.63;5.25;;;13.90;99.90;;;;;;4147972;28;20625;-95
2023/05/01 03:24:55;;;;;;;8.07;4.97;;;14.00;99.90;;;;;;4164367;28;20164;-93
2023/05/01 03:26:56;;;;;;;9.20;4.45;;;14.00;99.90;;;;;;4148237;28;20509;-92
2023/05/01 03:28:57;;;;;;;7.78;4.78;;;14.00;99.90;;;;;;4164463;28;20632;-96
2023/05/01 03:30:58;;;;;;;4.97;4.32;;;14.00;99.90;;;;;;4148060;28;20192;-95
2023/05/01 03:32:59;;;;;;;12.52;4.95;;;14.10;99.90;;;;;;4147996;28;20177;-92
2023/05/01 03:35:06;;;;;;;7.50;4.70;;;14.10;99.90;;;;;;4148503;28;20264;-95
2023/05/01 03:37:06;;;;;;;10.65;4.90;;;14.10;99.90;;;;;;4147913;28;20684;-96
2023/05/01 03:39:07;;;;;;;8.70;4.93;;;14.20;99.90;;;;;;4147962;28;20259;-95
2023/05/01 03:41:43;;;;;;;6.03;4.80;;;14.20;99.90;;;;;;4103802;28;20186;-93
2023/05/01 03:44:03;;;;;;;6.78;4.90;;;14.20;99.90;;;;;;4135540;28;20204;-93
2023/05/01 03:46:08;;;;;;;8.90;4.80;;;14.30;99.90;;;;;;4148329;28;20173;-95
2023/05/01 03:48:09;;;;;;;8.40;5.13;;;14.30;99.90;;;;;;4147964;28;20180;-95
2023/05/01 03:50:10;;;;;;;8.77;4.82;;;14.20;99.90;;;;;;4147810;28;20235;-93
2023/05/01 03:52:14;;;;;;;10.07;5.28;;;14.30;99.90;;;;;;4147769;28;20173;-94
2023/05/01 03:54:16;;;;;;;7.40;5.53;;;14.20;99.90;;;;;;4147811;28;20197;-92
2023/05/01 03:56:34;;;;;;;7.93;5.38;;;14.20;99.90;;;;;;4157422;28;20176;-94
2023/05/01 03:58:36;;;;;;;10.07;6.30;;;14.10;99.90;;;;;;4147874;28;20263;-92
2023/05/01 04:00:37;;;;;;;10.30;6.20;;;14.10;99.90;;;;;;4142217;28;20255;-94
2023/05/01 04:02:38;;;;;;;7.53;5.53;;;14.10;99.90;;;;;;4164100;28;20181;-93
2023/05/01 04:04:39;;;;;;;9.95;5.90;;;14.10;99.90;;;;;;4163848;28;20587;-93
2023/05/01 04:06:40;;;;;;;9.85;5.60;;;14.10;99.90;;;;;;4149921;28;20185;-94
2023/05/01 04:08:42;;;;;;;6.85;5.50;;;14.00;99.90;;;;;;4151303;28;20204;-93
2023/05/01 04:10:42;;;;;;;7.78;6.13;;;14.00;99.90;;;;;;4146081;28;20474;-94
2023/05/01 04:12:43;;;;;;;26.15;8.15;;;14.00;99.90;;;;;;4150941;28;20180;-95
2023/05/01 04:14:44;;;;;;;11.65;6.75;;;14.10;99.90;;;;;;4146017;28;20203;-94
2023/05/01 04:16:46;;;;;;;11.73;5.93;;;14.10;99.90;;;;;;4167075;28;20207;-93
2023/05/01 04:18:47;;;;;;;9.95;5.30;;;14.00;99.90;;;;;;4162535;28;20284;-92
2023/05/01 04:20:48;;;;;;;9.50;5.93;;;14.00;99.90;;;;;;4166930;28;20657;-95
2023/05/01 04:22:49;;;;;;;8.25;5.60;;;14.00;99.90;;;;;;4150837;28;20180;-92
2023/05/01 04:24:51;;;;;;;7.22;4.68;;;14.00;99.90;;;;;;4147159;28;20203;-92
2023/05/01 04:26:52;;;;;;;6.38;4.57;;;14.00;99.90;;;;;;4147261;28;20173;-95
2023/05/01 04:28:53;;;;;;;7.25;5.38;;;14.00;99.90;;;;;;4150370;28;20227;-93
2023/05/01 04:30:57;;;;;;;10.80;5.80;;;14.10;99.90;;;;;;4139883;28;20653;-92
2023/05/01 04:32:58;;;;;;;9.95;5.50;;;14.00;99.90;;;;;;4150412;28;20180;-95
2023/05/01 04:34:59;;;;;;;10.70;5.50;;;14.00;99.90;;;;;;4166849;28;20197;-96
2023/05/01 04:37:01;;;;;;;13.73;5.20;;;14.00;99.90;;;;;;4150437;28;20212;-93
2023/05/01 04:39:03;;;;;;;7.97;5.07;;;14.00;99.90;;;;;;4148516;28;20276;-92
2023/05/01 04:41:05;;;;;;;6.00;5.00;;;14.10;99.90;;;;;;4150394;28;20560;-92
2023/05/01 04:43:06;;;;;;;9.45;5.10;;;14.10;99.90;;;;;;4166802;28;20613;-95
2023/05/01 04:45:07;;;;;;;9.60;5.55;;;14.20;99.90;;;;;;4150606;28;20173;-93
2023/05/01 04:47:10;;;;;;;7.03;5.93;;;14.20;99.90;;;;;;4150400;28;20276;-93
2023/05/01 04:49:11;;;;;;;7.15;5.45;;;14.20;99.90;;;;;;4150334;28;20173;-94
2023/05/01 04:51:12;;;;;;;9.90;5.90;;;14.20;99.90;;;;;;4150183;28;20612;-92
2023/05/01 04:53:14;;;;;;;8.95;5.60;;;14.30;99.90;;;;;;4166777;28;20227;-96
2023/05/01 04:55:15;;;;;;;8.68;6.40;;;14.40;99.90;;;;;;4150265;28;20168;-94
2023/05/01 04:57:35;;;;;;;8.25;6.40;;;14.40;99.90;;;;;;4152170;28;20604;-92
2023/05/01 04:59:40;;;;;;;8.18;6.68;;;14.40;99.90;;;;;;4150049;28;20894;-93
2023/05/01 05:01:41;;;;;;;9.77;7.10;;;14.40;99.90;;;;;;4149991;28;20176;-95
2023/05/01 05:03:42;;;;;;;10.15;7.32;;;14.40;99.90;;;;;;4149675;28;20201;-94
2023/05/01 05:05:46;;;;;;;10.10;7.13;;;14.50;99.90;;;;;;4150432;28;20165;-96
2023/05/01 05:07:47;;;;;;;12.25;7.53;;;14.40;99.90;;;;;;4149865;28;20208;-93
2023/05/01 05:10:00;;;;;;;10.43;8.45;;;14.40;99.90;;;;;;4168063;28;20227;-93
2023/05/01 05:12:03;;;;;;;10.05;7.53;;;14.50;99.90;;;;;;4150276;28;20172;-92
2023/05/01 05:14:05;;;;;;;11.50;7.75;;;14.50;99.90;;;;;;4149915;28;20276;-92
2023/05/01 05:16:06;;;;;;;11.65;8.23;;;14.50;99.90;;;;;;4149799;28;20750;-93
2023/05/01 05:18:07;;;;;;;13.55;8.40;;;14.50;99.90;;;;;;4149544;28;20220;-95
2023/05/01 05:20:08;;;;;;;9.05;7.75;;;14.60;99.90;;;;;;4149832;28;20224;-93
2023/05/01 05:22:11;;;;;;;10.63;7.65;;;14.60;99.90;;;;;;4166050;28;20179;-96
2023/05/01 05:24:28;;;;;;;10.95;7.68;;;14.50;99.90;;;;;;4151829;28;20688;-93
2023/05/01 05:26:29;;;;;;;10.55;7.43;;;14.40;99.90;;;;;;4166106;28;20251;-91
2023/05/01 05:28:34;;;;;;;8.68;7.50;;;14.40;99.90;;;;;;4150036;28;20541;-93
2023/05/01 05:30:35;;;;;;;10.82;7.38;;;14.30;99.90;;;;;;4166082;28;20176;-95
2023/05/01 05:32:38;;;;;;;8.30;7.35;;;14.30;99.90;;;;;;4166021;28;20177;-92
2023/05/01 05:34:39;;;;;;;10.88;7.57;;;14.30;99.90;;;;;;4149881;28;20204;-94
2023/05/01 05:36:40;;;;;;;8.65;7.43;;;14.30;99.90;;;;;;4166035;28;20180;-92
2023/05/01 05:38:42;;;;;;;8.18;7.35;;;14.30;99.90;;;;;;4166442;28;20686;-95
2023/05/01 05:40:45;;;;;;;8.73;7.18;;;14.30;99.90;;;;;;4149927;28;20698;-95
2023/05/01 05:42:46;;;;;;;10.20;8.02;;;14.30;99.90;;;;;;4166031;28;20187;-93
2023/05/01 05:44:47;;;;;;;10.93;7.90;;;14.40;99.90;;;;;;4149257;28;20292;-93
2023/05/01 05:46:48;;;;;;;15.45;7.93;;;14.40;99.90;;;;;;4149243;28;20657;-95
2023/05/01 05:48:56;;;;;;;11.90;7.25;;;14.30;99.90;;;;;;4165564;28;20175;-94
2023/05/01 05:50:58;;;;;;;10.02;7.47;;;14.40;99.90;;;;;;4149147;28;20200;-94
2023/05/01 05:52:58;;;;;;;8.68;7.00;;;14.20;99.90;;;;;;4149135;28;20672;-93
2023/05/01 05:55:00;;;;;;;11.50;7.43;;;13.90;99.90;;;;;;4149184;28;20176;-91
2023/05/01 05:57:02;;;;;;;8.82;7.30;;;13.90;99.90;;;;;;4149142;28;20251;-92
2023/05/01 05:59:05;;;;;;;11.30;7.43;;;14.10;99.90;;;;;;4165422;28;20171;-90
2023/05/01 06:01:08;;;;;;;11.40;7.88;;;14.30;99.90;;;;;;4149189;28;20692;-95
2023/05/01 06:03:10;;;;;;;9.77;7.70;;;14.50;99.90;;;;;;4149285;28;20208;-95
2023/05/01 06:05:11;;;;;;;11.60;7.40;;;14.70;99.90;;;;;;4149296;28;20181;-95
2023/05/01 06:07:12;;;;;;;12.02;7.80;;;15.00;99.90;;;;;;4165346;28;20176;-93
2023/05/01 06:09:13;;;;;;;7.93;7.10;;;15.20;99.90;;;;;;4149309;28;20173;-93
2023/05/01 06:11:14;;;;;;;9.98;7.10;;;15.40;99.90;;;;;;4148937;28;20561;-95
2023/05/01 06:13:15;;;;;;;9.13;8.20;;;15.60;99.90;;;;;;4165713;28;20211;-92
2023/05/01 06:15:20;;;;;;;15.27;10.38;;;15.70;99.90;;;;;;4165675;28;20173;-95
2023/05/01 06:17:26;;;;;;;14.27;12.35;;;15.90;99.90;;;;;;4149780;28;20199;-93
2023/05/01 06:19:27;;;;;;;14.75;12.02;;;16.20;99.90;;;;;;4160922;28;20177;-94
2023/05/01 06:21:37;;;;;;;14.88;11.38;;;16.20;99.90;;;;;;4150095;28;20208;-95
2023/05/01 06:23:39;;;;;;;15.90;12.27;;;16.00;99.90;;;;;;4165047;28;20192;-91
2023/05/01 06:25:57;;;;;;;14.52;11.40;;;15.90;99.90;;;;;;4151011;28;20200;-92
2023/05/01 06:27:58;;;;;;;19.80;12.60;;;15.90;99.90;;;;;;4164728;28;20176;-94
2023/05/01 06:29:59;;;;;;;17.30;11.88;;;15.90;99.90;;;;;;4148658;28;20173;-94
2023/05/01 06:32:00;;;;;;;20.00;12.73;;;15.70;99.90;;;;;;4167717;28;20247;-93
2023/05/01 06:34:01;;;;;;;18.52;12.82;;;15.60;99.90;;;;;;4157518;28;20199;-91
2023/05/01 06:36:15;;;;;;;24.02;14.32;;;15.60;99.90;;;;;;4171112;28;20208;-92
2023/05/01 06:38:15;;;;;;;17.15;14.30;;;15.70;99.90;;;;;;4160130;28;20224;-95
2023/05/01 06:40:16;;;;;;;20.77;15.05;;;15.80;99.90;;;;;;4148761;28;20263;-93
2023/05/01 06:42:20;;;;;;;21.40;14.68;;;15.70;99.90;;;;;;4148628;28;20227;-93
2023/05/01 06:44:21;;;;;;;22.00;15.30;;;15.50;99.90;;;;;;4148675;28;20235;-94
2023/05/01 06:46:22;;;;;;;21.65;15.95;;;15.50;99.90;;;;;;4164906;28;20258;-96
2023/05/01 06:48:23;;;;;;;23.42;16.23;;;15.70;99.90;;;;;;4165099;28;20262;-94
2023/05/01 06:50:23;;;;;;;25.85;16.52;;;15.30;99.90;;;;;;4148541;28;20177;-92
2023/05/01 06:52:24;;;;;;;22.80;17.13;;;15.40;99.90;;;;;;4148335;28;20169;-94
2023/05/01 06:54:25;;;;;;;30.23;17.08;;;15.70;99.90;;;;;;4148321;28;20276;-94
2023/05/01 06:56:26;;;;;;;25.73;18.45;;;15.80;99.90;;;;;;4148211;28;20268;-95
2023/05/01 06:58:27;;;;;;;27.10;18.55;;;16.10;99.90;;;;;;4164445;28;20219;-92
2023/05/01 07:00:28;;;;;;;29.00;18.10;;;16.30;99.90;;;;;;4149146;28;20244;-94
2023/05/01 07:02:28;;;;;;;30.40;19.20;;;16.50;99.90;;;;;;4167430;28;20188;-94
2023/05/01 07:04:31;;;;;;;24.98;19.65;;;16.70;99.90;;;;;;4148824;28;20539;-95
2023/05/01 07:06:31;;;;;;;27.25;19.98;;;16.90;99.90;;;;;;4152457;28;20204;-91
2023/05/01 07:08:32;;;;;;;30.85;20.70;;;16.60;99.90;;;;;;4165775;28;20191;-92
2023/05/01 07:10:33;;;;;;;27.58;20.00;;;16.70;99.90;;;;;;4150968;28;20180;-91
2023/05/01 07:12:34;;;;;;;27.52;19.77;;;16.60;99.90;;;;;;4149231;28;20180;-94
2023/05/01 07:14:36;;;;;;;30.65;20.85;;;16.80;99.90;;;;;;4165689;28;20188;-92
2023/05/01 07:16:37;;;;;;;31.20;23.25;;;16.50;99.90;;;;;;4150155;28;20185;-93
2023/05/01 07:18:38;;;;;;;36.05;24.60;;;16.30;99.90;;;;;;4151448;28;20711;-93
2023/05/01 07:20:39;;;;;;;31.98;23.48;;;16.40;99.90;;;;;;4165383;28;20259;-93
2023/05/01 07:22:40;;;;;;;37.72;24.73;;;16.60;99.90;;;;;;4183757;28;20186;-93
2023/05/01 07:24:45;;;;;;;34.58;23.92;;;16.80;99.90;;;;;;4150449;28;20736;-91
2023/05/01 07:26:46;;;;;;;34.58;23.75;;;17.30;99.90;;;;;;4149982;28;20253;-92
2023/05/01 07:28:47;;;;;;;33.83;23.35;;;17.80;99.90;;;;;;4148273;28;20172;-94
2023/05/01 07:30:48;;;;;;;37.08;24.50;;;17.90;99.90;;;;;;4148490;28;20169;-91
2023/05/01 07:32:49;;;;;;;36.92;24.73;;;18.20;99.90;;;;;;4148441;28;20177;-92
2023/05/01 07:34:50;;;;;;;37.58;25.08;;;18.60;99.90;;;;;;4148220;28;20268;-92
2023/05/01 07:36:50;;;;;;;36.13;24.90;;;18.60;99.90;;;;;;4165224;28;20663;-91
2023/05/01 07:38:51;;;;;;;36.00;25.80;;;18.50;99.90;;;;;;4148200;28;20264;-91
2023/05/01 07:40:52;;;;;;;35.97;24.27;;;18.40;99.90;;;;;;4166921;28;20618;-91
2023/05/01 07:42:53;;;;;;;39.17;25.65;;;18.30;99.90;;;;;;4151452;28;20280;-91
2023/05/01 07:44:54;;;;;;;36.83;26.05;;;18.20;99.90;;;;;;4167663;28;20166;-90
2023/05/01 07:47:01;;;;;;;40.85;26.02;;;18.10;99.90;;;;;;4151227;28;20649;-90
2023/05/01 07:49:03;;;;;;;41.65;27.00;;;18.00;99.90;;;;;;4151007;28;20179;-94
2023/05/01 07:51:04;;;;;;;38.80;26.77;;;17.70;99.90;;;;;;4151097;28;20637;-91
2023/05/01 07:53:05;;;;;;;40.42;25.90;;;17.80;99.90;;;;;;4151462;28;20184;-94
2023/05/01 07:55:06;;;;;;;44.67;27.92;;;17.60;99.90;;;;;;4151263;28;20627;-92
2023/05/01 07:57:07;;;;;;;39.40;26.60;;;17.90;99.90;;;;;;4151299;28;20208;-91
2023/05/01 07:59:08;;;;;;;38.35;25.58;;;18.10;99.90;;;;;;4167790;28;20224;-91
2023/05/01 08:01:09;;;;;;;41.42;27.05;;;17.90;99.90;;;;;;4151150;28;20169;-94
2023/05/01 08:03:11;;;;;;;37.22;26.52;;;17.90;99.90;;;;;;4167680;28;20192;-92
2023/05/01 08:05:12;;;;;;;38.60;26.73;;;18.40;99.90;;;;;;4137895;28;20192;-93
2023/05/01 08:07:13;;;;;;;39.53;27.80;;;18.80;99.90;;;;;;4167112;28;20184;-94
2023/05/01 08:09:14;;;;;;;46.25;28.13;;;18.90;99.90;;;;;;4150782;28;20232;-94
2023/05/01 08:11:15;;;;;;;39.83;27.75;;;18.80;99.90;;;;;;4167128;28;20680;-94
2023/05/01 08:13:16;;;;;;;43.30;28.23;;;19.00;99.90;;;;;;4151857;28;20193;-94
2023/05/01 08:15:17;;;;;;;39.38;27.92;;;19.00;99.90;;;;;;4151705;28;20176;-94
2023/05/01 08:17:18;;;;;;;39.65;26.65;;;18.80;99.90;;;;;;4152553;28;20212;-93
2023/05/01 08:19:19;;;;;;;43.45;28.40;;;18.70;99.90;;;;;;4152003;28;20177;-94
2023/05/01 08:21:19;;;;;;;39.97;28.02;;;18.80;99.90;;;;;;4143725;28;20266;-94
2023/05/01 08:23:20;;;;;;;41.80;28.80;;;18.60;99.90;;;;;;4144150;28;20200;-94
2023/05/01 08:25:22;;;;;;;39.55;26.17;;;18.50;99.90;;;;;;4160979;28;20584;-91
2023/05/01 08:27:22;;;;;;;38.55;27.80;;;17.70;99.90;;;;;;4151312;28;20188;-92
2023/05/01 08:29:23;;;;;;;39.45;26.10;;;17.40;99.90;;;;;;4150621;28;20177;-90
2023/05/01 08:31:24;;;;;;;42.40;27.75;;;17.30;99.90;;;;;;4153992;28;20165;-93
2023/05/01 08:33:25;;;;;;;38.55;26.63;;;17.30;99.90;;;;;;4153097;28;20216;-94
2023/05/01 08:35:26;;;;;;;38.92;25.70;;;17.40;99.90;;;;;;4151601;28;20173;-91
2023/05/01 08:37:27;;;;;;;37.78;25.48;;;17.70;99.90;;;;;;4168156;28;20241;-93
2023/05/01 08:39:28;;;;;;;36.67;25.83;;;17.60;99.90;;;;;;4166730;28;20175;-92
2023/05/01 08:41:31;;;;;;;36.30;26.05;;;18.10;99.90;;;;;;4150722;28;20204;-92
2023/05/01 08:43:32;;;;;;;35.85;25.90;;;18.40;99.90;;;;;;4150326;28;20204;-92
2023/05/01 08:45:36;;;;;;;35.88;24.60;;;18.80;99.90;;;;;;4151966;28;20226;-94
2023/05/01 08:47:38;;;;;;;39.08;24.23;;;18.60;99.90;;;;;;4152289;28;20531;-92
2023/05/01 08:49:41;;;;;;;36.53;23.75;;;18.70;99.90;;;;;;4150958;28;20184;-94
2023/05/01 08:51:45;;;;;;;32.60;22.38;;;19.30;99.90;;;;;;4149761;28;20168;-91
2023/05/01 08:53:49;;;;;;;33.65;22.73;;;19.40;99.90;;;;;;4150043;28;20241;-93
2023/05/01 08:55:51;;;;;;;34.95;22.05;;;20.10;99.90;;;;;;4150706;28;20228;-93
2023/05/01 08:57:53;;;;;;;32.00;21.10;;;19.90;99.90;;;;;;4166443;28;20246;-91
2023/05/01 08:59:55;;;;;;;30.35;22.20;;;19.50;99.90;;;;;;4153292;28;20165;-92
2023/05/01 09:01:58;;;;;;;31.13;22.35;;;19.90;99.90;;;;;;4173699;28;20187;-92
2023/05/01 09:04:02;;;;;;;29.65;21.73;;;20.50;99.90;;;;;;4170491;28;20181;-91
2023/05/01 09:06:04;;;;;;;31.00;22.08;;;21.10;99.90;;;;;;4159596;28;20173;-90
2023/05/01 09:08:04;;;;;;;30.65;22.92;;;20.80;99.90;;;;;;4150342;28;20192;-92
2023/05/01 09:10:06;;;;;;;31.25;21.55;;;20.80;99.90;;;;;;4150074;28;20176;-92
2023/05/01 09:12:19;;;;;;;26.58;20.17;;;20.50;99.90;;;;;;4150272;28;20176;-91
2023/05/01 09:14:20;;;;;;;30.08;20.75;;;20.10;99.90;;;;;;4149934;28;20217;-93
2023/05/01 09:16:21;;;;;;;27.98;20.75;;;19.60;99.90;;;;;;4142466;28;20184;-91
2023/05/01 09:18:23;;;;;;;25.42;19.73;;;19.90;99.90;;;;;;4142424;28;20221;-93
2023/05/01 09:20:24;;;;;;;24.50;16.05;;;19.80;99.90;;;;;;4142359;28;20177;-90
2023/05/01 09:22:25;;;;;;;25.33;19.65;;;19.90;99.90;;;;;;4150046;28;20176;-90
2023/05/01 09:24:26;;;;;;;25.20;19.13;;;19.80;99.90;;;;;;4149864;28;20193;-91
2023/05/01 09:26:26;;;;;;;23.45;18.63;;;20.10;99.90;;;;;;4149766;28;20180;-90
2023/05/01 09:28:46;;;;;;;24.33;19.80;;;20.20;99.90;;;;;;4141598;28;20209;-92
2023/05/01 09:30:46;;;;;;;28.10;19.08;;;19.40;99.90;;;;;;4149793;28;20181;-93
2023/05/01 09:33:12;;;;;;;29.98;19.38;;;19.30;99.90;;;;;;4145512;28;20181;-93
2023/05/01 09:35:16;;;;;;;30.10;18.90;;;18.60;99.90;;;;;;4165958;28;20172;-90
2023/05/01 09:37:30;;;;;;;26.70;18.27;;;18.50;99.90;;;;;;4149754;28;20299;-93
2023/05/01 09:39:31;;;;;;;26.38;19.15;;;18.40;99.90;;;;;;4166080;28;20266;-91
2023/05/01 09:41:32;;;;;;;26.15;18.90;;;18.80;99.90;;;;;;4149518;28;20204;-92
2023/05/01 09:43:33;;;;;;;30.75;18.88;;;19.20;99.90;;;;;;4149133;28;20188;-93
2023/05/01 09:45:35;;;;;;;24.33;18.13;;;19.60;99.90;;;;;;4149310;28;20183;-90
2023/05/01 09:47:36;;;;;;;26.50;18.30;;;19.70;99.90;;;;;;4165691;28;20214;-94
2023/05/01 09:49:46;;;;;;;25.95;18.52;;;19.50;99.90;;;;;;4149158;28;20173;-92
2023/05/01 09:51:48;;;;;;;26.40;18.60;;;19.60;99.90;;;;;;4149134;28;20184;-92
2023/05/01 09:53:49;;;;;;;27.90;18.15;;;19.10;99.90;;;;;;4149282;28;20196;-93
2023/05/01 09:56:02;;;;;;;29.88;19.13;;;19.00;99.90;;;;;;4165552;28;20175;-93
2023/05/01 09:58:03;;;;;;;26.58;17.80;;;19.20;99.90;;;;;;4149182;28;20270;-93
2023/05/01 10:00:07;;;;;;;24.10;17.65;;;19.60;99.90;;;;;;4165700;28;20172;-91
2023/05/01 10:02:28;;;;;;;25.02;17.95;;;19.20;99.90;;;;;;4149166;28;20780;-91
2023/05/01 10:04:33;;;;;;;22.40;16.55;;;19.70;99.90;;;;;;4148456;28;20680;-93
2023/05/01 10:06:35;;;;;;;23.88;16.88;;;19.70;99.90;;;;;;4165682;28;20259;-92
2023/05/01 10:08:49;;;;;;;26.08;17.00;;;20.00;99.90;;;;;;4149762;28;20184;-95
2023/05/01 10:11:04;;;;;;;23.00;16.20;;;20.30;99.90;;;;;;4149456;28;20208;-92
2023/05/01 10:13:17;;;;;;;20.58;16.65;;;19.90;99.90;;;;;;4148764;28;20176;-90
2023/05/01 10:15:21;;;;;;;23.10;16.00;;;19.80;99.90;;;;;;4148935;28;20172;-90
2023/05/01 10:17:22;;;;;;;22.00;16.13;;;19.30;99.90;;;;;;4149009;28;20565;-93
2023/05/01 10:19:23;;;;;;;21.35;16.13;;;19.70;99.90;;;;;;4165395;28;20165;-93
2023/05/01 10:21:24;;;;;;;23.45;16.17;;;19.60;99.90;;;;;;4148842;28;20588;-94
2023/05/01 10:23:25;;;;;;;20.77;16.02;;;19.80;99.90;;;;;;4165231;28;20188;-91
2023/05/01 10:25:27;;;;;;;18.92;14.10;;;20.00;99.90;;;;;;4148741;28;20169;-95
2023/05/01 10:27:29;;;;;;;24.20;15.25;;;19.70;99.90;;;;;;4148958;28;20169;-93
2023/05/01 10:29:31;;;;;;;18.83;14.38;;;19.40;99.90;;;;;;4148839;28;20184;-94
2023/05/01 10:31:32;;;;;;;22.48;14.63;;;19.30;99.90;;;;;;4148794;28;20213;-93
2023/05/01 10:33:33;;;;;;;22.23;14.88;;;19.10;99.90;;;;;;4148907;28;20192;-91
2023/05/01 10:35:38;;;;;;;18.25;13.95;;;19.40;99.90;;;;;;4148987;28;20556;-90
2023/05/01 10:38:03;;;;;;;19.95;13.60;;;19.80;99.90;;;;;;4149323;28;20262;-94